createdAt,value
2023-03-14T00:01:32.373Z,45.75
2023-03-14T00:04:00.260Z,44.28
2023-03-14T00:06:27.965Z,44.46
2023-03-14T00:08:55.843Z,44.70
2023-03-14T00:11:23.584Z,44.74
2023-03-14T00:13:52.808Z,44.61
2023-03-14T00:16:21.773Z,44.61
2023-03-14T00:18:49.500Z,47.88
2023-03-14T00:21:17.175Z,53.16
2023-03-14T00:23:44.977Z,51.54
2023-03-14T00:26:13.305Z,52.51
2023-03-14T00:28:40.883Z,46.17
2023-03-14T00:31:10.920Z,48.14
2023-03-14T00:33:38.684Z,48.07
2023-03-14T00:36:07.631Z,46.58
2023-03-14T00:38:35.298Z,50.21
2023-03-14T00:41:05.018Z,47.55
2023-03-14T00:43:32.853Z,48.38
2023-03-14T00:46:00.473Z,48.64
2023-03-14T00:48:29.688Z,50.69
2023-03-14T00:50:57.293Z,49.37
2023-03-14T00:53:24.942Z,52.06
2023-03-14T00:55:52.574Z,47.15
2023-03-14T00:58:20.399Z,50.51
2023-03-14T01:00:48.237Z,45.43
2023-03-14T01:03:16.254Z,48.07
2023-03-14T01:05:45.208Z,44.50
2023-03-14T01:08:13.843Z,49.73
2023-03-14T01:10:41.487Z,50.30
2023-03-14T01:13:09.281Z,50.62
2023-03-14T01:15:37.621Z,50.97
2023-03-14T01:18:05.354Z,46.64
2023-03-14T01:20:32.992Z,52.21
2023-03-14T01:23:02.055Z,49.19
2023-03-14T01:25:31.044Z,50.99
2023-03-14T01:27:58.768Z,57.61
2023-03-14T01:30:26.610Z,54.39
2023-03-14T01:32:54.302Z,53.58
2023-03-14T01:35:22.492Z,51.97
2023-03-14T01:37:50.205Z,55.06
2023-03-14T01:40:23.997Z,47.63
2023-03-14T01:42:56.430Z,48.35
2023-03-14T01:45:42.920Z,51.00
2023-03-14T01:48:10.661Z,48.89
2023-03-14T01:50:38.258Z,50.24
2023-03-14T01:53:05.999Z,51.19
2023-03-14T01:55:35.088Z,49.24
2023-03-14T01:58:02.971Z,49.00
2023-03-14T02:00:30.911Z,52.45
2023-03-14T02:02:59.107Z,54.87
2023-03-14T02:05:27.812Z,48.56
2023-03-14T02:08:00.662Z,49.87
2023-03-14T02:10:33.988Z,53.82
2023-03-14T02:13:05.416Z,49.02
2023-03-14T02:16:01.906Z,46.40
2023-03-14T02:18:38.840Z,47.50
2023-03-14T02:21:38.013Z,48.73
2023-03-14T02:24:09.219Z,51.78
2023-03-14T02:26:42.937Z,49.72
2023-03-14T02:29:12.179Z,53.60
2023-03-14T02:31:40.761Z,47.26
2023-03-14T02:34:08.441Z,45.80
2023-03-14T02:36:36.071Z,47.89
2023-03-14T02:39:05.867Z,50.30
2023-03-14T02:41:33.557Z,51.07
2023-03-14T02:44:05.469Z,50.89
2023-03-14T02:46:36.073Z,49.75
2023-03-14T02:49:04.336Z,51.96
2023-03-14T02:51:33.230Z,49.54
2023-03-14T02:54:00.890Z,49.06
2023-03-14T02:56:28.586Z,50.56
2023-03-14T02:58:58.613Z,48.89
2023-03-14T03:01:33.974Z,50.05
2023-03-14T03:04:03.153Z,48.48
2023-03-14T03:06:30.787Z,50.25
2023-03-14T03:08:58.429Z,55.11
2023-03-14T03:11:26.121Z,53.92
2023-03-14T03:13:53.898Z,56.03
2023-03-14T03:16:22.173Z,49.99
2023-03-14T03:18:49.833Z,50.58
2023-03-14T03:21:19.888Z,49.87
2023-03-14T03:23:47.553Z,48.65
2023-03-14T03:26:15.151Z,51.32
2023-03-14T03:28:42.952Z,52.24
2023-03-14T03:31:12.672Z,51.00
2023-03-14T03:33:40.960Z,55.55
2023-03-14T03:36:09.533Z,49.98
2023-03-14T03:38:41.538Z,49.80
2023-03-14T03:41:10.452Z,49.07
2023-03-14T03:43:38.166Z,47.23
2023-03-14T03:46:08.485Z,46.69
2023-03-14T03:48:36.371Z,48.76
2023-03-14T03:51:06.359Z,46.42
2023-03-14T03:53:35.182Z,46.84
2023-03-14T03:56:10.267Z,46.79
2023-03-14T03:58:39.788Z,48.38
2023-03-14T04:01:08.295Z,49.86
2023-03-14T04:03:36.647Z,47.79
2023-03-14T04:06:06.050Z,47.42
2023-03-14T04:08:35.968Z,45.56
2023-03-14T04:11:03.951Z,46.02
2023-03-14T04:13:50.545Z,48.15
2023-03-14T04:16:19.014Z,48.53
2023-03-14T04:18:47.163Z,48.35
2023-03-14T04:21:15.265Z,48.51
2023-03-14T04:23:47.853Z,47.14
2023-03-14T04:26:16.539Z,44.16
2023-03-14T04:28:44.517Z,44.24
2023-03-14T04:31:14.980Z,47.07
2023-03-14T04:33:45.694Z,44.63
2023-03-14T04:36:15.277Z,43.26
2023-03-14T04:38:44.229Z,42.71
2023-03-14T04:41:13.530Z,42.17
2023-03-14T04:43:41.326Z,45.74
2023-03-14T04:46:11.966Z,45.30
2023-03-14T04:48:41.006Z,43.96
2023-03-14T04:51:11.141Z,43.66
2023-03-14T04:53:38.976Z,44.10
2023-03-14T04:56:12.783Z,43.16
2023-03-14T04:58:42.137Z,42.63
2023-03-14T05:01:09.809Z,44.65
2023-03-14T05:03:56.084Z,42.98
2023-03-14T05:06:45.363Z,43.69
2023-03-14T05:09:35.818Z,42.10
2023-03-14T05:12:22.028Z,45.17
2023-03-14T05:15:22.142Z,43.90
2023-03-14T05:18:15.263Z,45.24
2023-03-14T05:21:01.772Z,42.70
2023-03-14T05:23:51.176Z,42.69
2023-03-14T05:26:54.349Z,43.76
2023-03-14T05:29:31.588Z,41.69
2023-03-14T05:32:17.892Z,43.46
2023-03-14T05:35:00.116Z,40.34
2023-03-14T05:37:36.151Z,41.05
2023-03-14T05:40:21.251Z,43.19
2023-03-14T05:42:59.244Z,43.33
2023-03-14T05:45:39.037Z,43.00
2023-03-14T05:48:42.528Z,44.13
2023-03-14T05:51:28.577Z,42.93
2023-03-14T05:54:12.871Z,42.85
2023-03-14T05:56:45.262Z,42.85
2023-03-14T05:59:33.009Z,39.29
2023-03-14T06:02:20.651Z,41.84
2023-03-14T06:04:58.126Z,44.31
2023-03-14T06:07:25.898Z,41.03
2023-03-14T06:09:54.145Z,42.21
2023-03-14T06:12:23.214Z,45.62
2023-03-14T06:14:51.900Z,43.12
2023-03-14T06:17:19.579Z,42.45
2023-03-14T06:19:57.020Z,44.60
2023-03-14T06:22:25.685Z,46.01
2023-03-14T06:24:56.114Z,45.08
2023-03-14T06:27:26.658Z,42.93
2023-03-14T06:29:57.019Z,40.74
2023-03-14T06:32:26.003Z,42.88
2023-03-14T06:34:58.104Z,41.37
2023-03-14T06:37:25.826Z,42.01
2023-03-14T06:39:54.723Z,42.15
2023-03-14T06:42:40.849Z,42.00
2023-03-14T06:45:09.489Z,42.77
2023-03-14T06:47:37.378Z,41.45
2023-03-14T06:50:05.688Z,42.63
2023-03-14T06:52:33.908Z,42.00
2023-03-14T06:55:02.261Z,44.58
2023-03-14T06:57:32.986Z,42.92
2023-03-14T07:00:02.479Z,42.58
2023-03-14T07:02:42.213Z,46.69
2023-03-14T07:05:19.757Z,41.55
2023-03-14T07:07:47.422Z,43.35
2023-03-14T07:10:15.085Z,40.06
2023-03-14T07:12:42.822Z,41.37
2023-03-14T07:18:06.518Z,40.40
2023-03-14T07:20:36.228Z,41.80
2023-03-14T07:23:05.133Z,42.67
2023-03-14T07:25:40.658Z,39.92
2023-03-14T07:28:08.714Z,39.76
2023-03-14T07:30:39.577Z,39.11
2023-03-14T07:33:13.736Z,39.02
2023-03-14T07:35:41.480Z,40.59
2023-03-14T07:38:09.621Z,43.53
2023-03-14T07:40:43.583Z,44.72
2023-03-14T07:43:11.326Z,41.11
2023-03-14T07:45:51.322Z,41.47
2023-03-14T07:48:19.171Z,43.22
2023-03-14T07:53:14.161Z,42.05
2023-03-14T07:55:42.071Z,40.25
2023-03-14T07:58:09.711Z,41.61
2023-03-14T08:00:37.384Z,41.44
2023-03-14T08:03:06.497Z,39.62
2023-03-14T08:05:36.144Z,40.08
2023-03-14T08:08:03.867Z,39.17
2023-03-14T08:10:31.760Z,36.16
2023-03-14T08:13:00.162Z,34.88
2023-03-14T08:15:28.117Z,38.77
2023-03-14T08:17:56.001Z,41.58
2023-03-14T08:20:26.197Z,39.77
2023-03-14T08:22:54.105Z,40.15
2023-03-14T08:25:21.847Z,39.02
2023-03-14T08:27:49.493Z,40.44
2023-03-14T08:30:17.956Z,39.81
2023-03-14T08:32:45.642Z,40.54
2023-03-14T08:35:13.329Z,39.11
2023-03-14T08:37:42.316Z,39.02
2023-03-14T08:40:12.709Z,38.22
2023-03-14T08:42:40.552Z,36.03
2023-03-14T08:45:08.958Z,36.42
2023-03-14T08:47:36.655Z,39.04
2023-03-14T08:50:05.014Z,39.97
2023-03-14T08:52:32.917Z,36.81
2023-03-14T08:55:01.894Z,35.41
2023-03-14T08:57:30.294Z,37.70
2023-03-14T09:00:00.856Z,37.75
2023-03-14T09:02:31.980Z,34.72
2023-03-14T09:05:07.927Z,36.38
2023-03-14T09:07:35.623Z,35.09
2023-03-14T09:10:04.746Z,35.60
2023-03-14T09:12:32.469Z,38.56
2023-03-14T09:15:00.052Z,35.37
2023-03-14T09:17:27.844Z,35.83
2023-03-14T09:19:55.494Z,36.06
2023-03-14T09:22:23.060Z,37.59
2023-03-14T09:24:50.676Z,38.47
2023-03-14T09:27:19.697Z,38.01
2023-03-14T09:29:47.348Z,39.62
2023-03-14T09:32:14.971Z,38.57
2023-03-14T09:34:42.748Z,36.80
2023-03-14T09:37:10.337Z,36.35
2023-03-14T09:39:38.061Z,35.73
2023-03-14T09:42:06.926Z,34.87
2023-03-14T09:44:36.838Z,34.33
2023-03-14T09:47:05.429Z,37.18
2023-03-14T09:49:33.937Z,36.18
2023-03-14T09:52:04.236Z,34.81
2023-03-14T09:54:33.027Z,35.33
2023-03-14T09:57:00.629Z,34.02
2023-03-14T09:59:28.365Z,33.81
2023-03-14T10:01:57.481Z,36.68
2023-03-14T10:04:25.266Z,36.41
2023-03-14T10:06:53.570Z,35.77
2023-03-14T10:09:25.938Z,35.19
2023-03-14T10:11:54.927Z,36.12
2023-03-14T10:14:30.609Z,36.03
2023-03-14T10:17:01.292Z,36.80
2023-03-14T10:19:28.920Z,33.87
2023-03-14T10:21:56.678Z,37.04
2023-03-14T10:24:24.814Z,36.08
2023-03-14T10:26:54.115Z,34.78
2023-03-14T10:29:22.602Z,35.15
2023-03-14T10:34:26.801Z,35.22
2023-03-14T10:36:55.761Z,37.00
2023-03-14T10:39:28.106Z,35.83
2023-03-14T10:41:56.866Z,34.70
2023-03-14T10:44:26.602Z,37.53
2023-03-14T10:47:01.120Z,34.40
2023-03-14T10:49:34.122Z,33.55
2023-03-14T10:52:14.954Z,34.60
2023-03-14T10:54:45.551Z,35.01
2023-03-14T10:57:13.136Z,34.24
2023-03-14T10:59:41.330Z,33.99
2023-03-14T11:02:13.923Z,33.83
2023-03-14T11:04:48.904Z,35.08
2023-03-14T11:07:16.841Z,34.54
2023-03-14T11:09:45.822Z,33.73
2023-03-14T11:12:17.796Z,33.29
2023-03-14T11:14:45.877Z,37.34
2023-03-14T11:17:14.410Z,37.52
2023-03-14T11:19:48.050Z,36.13
2023-03-14T11:22:16.993Z,36.46
2023-03-14T11:24:49.261Z,33.71
2023-03-14T11:27:19.005Z,33.83
2023-03-14T11:29:48.996Z,36.85
2023-03-14T11:32:18.809Z,36.75
2023-03-14T11:34:49.529Z,34.29
2023-03-14T11:37:19.322Z,35.99
2023-03-14T11:39:47.449Z,34.10
2023-03-14T11:42:16.128Z,36.61
2023-03-14T11:44:43.794Z,39.59
2023-03-14T11:47:15.232Z,38.14
2023-03-14T11:49:44.360Z,40.90
2023-03-14T11:52:14.887Z,38.28
2023-03-14T11:54:46.586Z,38.34
2023-03-14T11:57:14.792Z,41.31
2023-03-14T11:59:44.149Z,40.51
2023-03-14T12:02:13.210Z,38.27
2023-03-14T12:04:48.050Z,39.64
2023-03-14T12:07:20.394Z,41.33
2023-03-14T12:09:48.136Z,39.59
2023-03-14T12:12:16.421Z,37.79
2023-03-14T12:14:46.682Z,35.69
2023-03-14T12:17:20.752Z,37.31
2023-03-14T12:19:49.005Z,35.27
2023-03-14T12:22:28.349Z,36.43
2023-03-14T12:24:57.361Z,38.73
2023-03-14T12:27:43.782Z,36.35
2023-03-14T12:30:16.568Z,37.06
2023-03-14T12:32:44.309Z,37.06
2023-03-14T12:35:26.945Z,37.49
2023-03-14T12:37:56.045Z,38.18
2023-03-14T12:40:24.070Z,37.28
2023-03-14T12:42:56.813Z,33.36
2023-03-14T12:45:26.094Z,33.17
2023-03-14T12:48:11.361Z,34.26
2023-03-14T12:50:45.448Z,33.71
2023-03-14T12:53:36.084Z,36.03
2023-03-14T12:56:05.126Z,34.83
2023-03-14T12:58:33.767Z,35.62
2023-03-14T13:01:01.808Z,35.09
2023-03-14T13:03:39.379Z,36.28
2023-03-14T13:06:07.555Z,42.34
2023-03-14T13:08:40.834Z,39.67
2023-03-14T13:11:10.211Z,40.15
2023-03-14T13:13:38.028Z,37.85
2023-03-14T13:16:05.946Z,37.51
2023-03-14T13:18:36.537Z,37.39
2023-03-14T13:21:05.029Z,38.12
2023-03-14T13:23:33.249Z,37.77
2023-03-14T13:26:02.544Z,38.60
2023-03-14T13:28:30.308Z,38.10
2023-03-14T13:30:58.658Z,34.52
2023-03-14T13:33:26.333Z,35.91
2023-03-14T13:35:56.939Z,35.17
2023-03-14T13:38:25.060Z,32.61
2023-03-14T13:40:53.368Z,33.36
2023-03-14T13:43:23.227Z,34.38
2023-03-14T13:45:51.901Z,38.07
2023-03-14T13:48:27.822Z,35.57
2023-03-14T13:50:56.287Z,35.38
2023-03-14T13:53:24.395Z,37.88
2023-03-14T13:55:52.240Z,39.49
2023-03-14T13:58:25.055Z,36.69
2023-03-14T14:00:56.266Z,37.13
2023-03-14T14:03:24.433Z,34.38
2023-03-14T14:05:52.143Z,32.58
2023-03-14T14:08:19.870Z,35.73
2023-03-14T14:10:47.747Z,34.63
2023-03-14T14:13:16.077Z,35.47
2023-03-14T14:15:45.891Z,35.93
2023-03-14T14:18:14.121Z,37.84
2023-03-14T14:20:42.223Z,38.29
2023-03-14T14:23:12.194Z,39.15
2023-03-14T14:25:39.912Z,38.61
2023-03-14T14:28:16.842Z,39.44
2023-03-14T14:30:46.011Z,33.76
2023-03-14T14:33:18.191Z,37.33
2023-03-14T14:35:51.035Z,37.34
2023-03-14T14:38:18.858Z,36.17
2023-03-14T14:40:46.911Z,34.68
2023-03-14T14:43:16.955Z,34.01
2023-03-14T14:45:45.926Z,36.98
2023-03-14T14:48:14.242Z,38.90
2023-03-14T14:50:46.935Z,39.40
2023-03-14T14:53:22.122Z,38.82
2023-03-14T14:55:52.551Z,40.53
2023-03-14T14:58:22.633Z,42.92
2023-03-14T15:00:55.571Z,42.77
2023-03-14T15:03:23.279Z,40.26
2023-03-14T15:05:51.047Z,42.17
2023-03-14T15:08:18.662Z,39.94
2023-03-14T15:10:46.317Z,43.81
2023-03-14T15:13:14.617Z,43.34
2023-03-14T15:15:42.859Z,46.77
2023-03-14T15:18:14.371Z,45.04
2023-03-14T15:20:42.139Z,44.77
2023-03-14T15:23:13.057Z,47.14
2023-03-14T15:25:54.558Z,100.00
2023-03-14T15:28:23.992Z,100.00
2023-03-14T15:30:52.078Z,100.00
2023-03-14T15:33:21.457Z,100.00
2023-03-14T15:35:49.334Z,100.00
2023-03-14T15:38:17.745Z,100.00
2023-03-14T15:40:45.318Z,100.00
2023-03-14T15:43:12.983Z,100.00
2023-03-14T15:45:42.308Z,100.00
2023-03-14T15:48:14.032Z,100.00
2023-03-14T15:50:43.016Z,100.00
2023-03-14T15:53:10.754Z,100.00
2023-03-14T15:55:38.386Z,100.00
2023-03-14T15:58:06.248Z,100.00
2023-03-14T16:00:35.608Z,100.00
2023-03-14T16:03:03.294Z,100.00
2023-03-14T16:05:30.932Z,100.00
2023-03-14T16:08:00.129Z,100.00
2023-03-14T16:10:30.097Z,100.00
2023-03-14T16:12:58.087Z,100.00
2023-03-14T16:15:26.899Z,100.00
2023-03-14T16:17:54.594Z,100.00
2023-03-14T16:20:22.308Z,100.00
2023-03-14T16:22:50.027Z,100.00
2023-03-14T16:25:19.517Z,100.00
2023-03-14T16:27:47.166Z,100.00
2023-03-14T16:30:15.270Z,100.00
2023-03-14T16:32:42.990Z,100.00
2023-03-14T16:35:10.746Z,100.00
2023-03-14T16:37:38.357Z,100.00
2023-03-14T16:43:14.818Z,100.00
2023-03-14T16:45:43.212Z,100.00
2023-03-14T16:48:10.898Z,100.00
2023-03-14T16:50:40.321Z,100.00
2023-03-14T16:53:11.465Z,100.00
2023-03-14T16:55:41.525Z,100.00
2023-03-14T16:58:10.544Z,100.00
2023-03-14T17:00:38.398Z,100.00
2023-03-14T17:03:06.117Z,100.00
2023-03-14T17:05:33.767Z,100.00
2023-03-14T17:08:01.424Z,100.00
2023-03-14T17:10:29.076Z,100.00
2023-03-14T17:12:56.706Z,100.00
2023-03-14T17:15:25.716Z,100.00
2023-03-14T17:17:53.307Z,100.00
2023-03-14T17:20:21.014Z,100.00
2023-03-14T17:22:48.643Z,82.43
2023-03-14T17:25:16.348Z,100.00
2023-03-14T17:27:46.050Z,72.46
2023-03-14T17:30:14.521Z,95.34
2023-03-14T17:32:43.574Z,100.00
2023-03-14T17:35:11.418Z,85.51
2023-03-14T17:37:39.009Z,100.00
2023-03-14T17:40:07.176Z,82.17
2023-03-14T17:42:34.835Z,87.88
2023-03-14T17:45:02.516Z,100.00
2023-03-14T17:47:30.122Z,100.00
2023-03-14T17:49:59.164Z,100.00
2023-03-14T17:52:26.789Z,100.00
2023-03-14T17:54:54.377Z,100.00
2023-03-14T17:57:21.962Z,100.00
2023-03-14T17:59:49.568Z,98.75
2023-03-14T18:02:17.360Z,100.00
2023-03-14T18:04:45.150Z,86.65
2023-03-14T18:07:14.631Z,100.00
2023-03-14T18:09:42.353Z,68.80
2023-03-14T18:12:10.094Z,89.54
2023-03-14T18:14:37.768Z,73.92
2023-03-14T18:17:05.475Z,70.19
2023-03-14T18:19:33.177Z,80.03
2023-03-14T18:22:00.850Z,100.00
2023-03-14T18:24:40.017Z,83.45
2023-03-14T18:27:07.643Z,87.38
2023-03-14T18:29:35.445Z,80.16
2023-03-14T18:32:03.070Z,95.43
2023-03-14T18:34:33.150Z,75.84
2023-03-14T18:37:05.848Z,75.68
2023-03-14T18:39:35.394Z,65.83
2023-03-14T18:42:03.055Z,68.54
2023-03-14T18:44:30.797Z,71.45
2023-03-14T18:46:58.518Z,67.10
2023-03-14T18:49:26.301Z,71.25
2023-03-14T18:51:53.930Z,69.77
2023-03-14T18:54:22.089Z,64.56
2023-03-14T18:56:51.728Z,62.94
2023-03-14T18:59:19.426Z,60.12
2023-03-14T19:01:47.096Z,68.72
2023-03-14T19:04:14.682Z,77.25
2023-03-14T19:06:42.395Z,82.13
2023-03-14T19:09:11.017Z,72.79
2023-03-14T19:11:38.714Z,87.29
2023-03-14T19:14:07.699Z,75.64
2023-03-14T19:16:35.421Z,74.75
2023-03-14T19:19:03.659Z,69.53
2023-03-14T19:21:32.351Z,68.30
2023-03-14T19:24:00.284Z,80.25
2023-03-14T19:26:29.747Z,77.55
2023-03-14T19:28:57.435Z,78.75
2023-03-14T19:31:26.484Z,76.53
2023-03-14T19:33:54.197Z,69.78
2023-03-14T19:36:23.439Z,61.58
2023-03-14T19:38:51.429Z,76.64
2023-03-14T19:41:19.048Z,86.49
2023-03-14T19:43:46.727Z,81.09
2023-03-14T19:46:14.493Z,72.66
2023-03-14T19:48:45.423Z,76.63
2023-03-14T19:51:13.052Z,71.88
2023-03-14T19:53:41.871Z,77.28
2023-03-14T19:56:09.521Z,65.05
2023-03-14T19:58:37.470Z,75.18
2023-03-14T20:01:06.072Z,70.51
2023-03-14T20:03:33.795Z,65.79
2023-03-14T20:06:06.374Z,74.27
2023-03-14T20:08:34.038Z,72.56
2023-03-14T20:11:04.304Z,67.04
2023-03-14T20:13:31.979Z,60.46
2023-03-14T20:15:59.646Z,70.10
2023-03-14T20:18:27.285Z,63.95
2023-03-14T20:20:54.923Z,65.74
2023-03-14T20:23:23.924Z,59.42
2023-03-14T20:25:54.982Z,65.02
2023-03-14T20:28:22.650Z,59.98
2023-03-14T20:30:50.361Z,57.71
2023-03-14T20:33:19.761Z,59.55
2023-03-14T20:35:47.463Z,59.41
2023-03-14T20:38:15.056Z,57.77
2023-03-14T20:40:46.388Z,56.17
2023-03-14T20:43:13.979Z,58.35
2023-03-14T20:45:41.614Z,58.05
2023-03-14T20:48:09.235Z,55.29
2023-03-14T20:50:36.789Z,56.96
2023-03-14T20:53:04.484Z,56.24
2023-03-14T20:55:32.076Z,50.66
2023-03-14T20:58:01.450Z,52.87
2023-03-14T21:00:29.184Z,49.30
2023-03-14T21:02:56.871Z,53.09
2023-03-14T21:05:24.746Z,54.24
2023-03-14T21:07:53.108Z,53.29
2023-03-14T21:10:21.326Z,53.90
2023-03-14T21:12:48.996Z,54.69
2023-03-14T21:15:18.149Z,54.25
2023-03-14T21:17:45.749Z,51.47
2023-03-14T21:20:14.017Z,50.51
2023-03-14T21:22:41.880Z,50.71
2023-03-14T21:25:09.490Z,53.27
2023-03-14T21:27:38.875Z,50.54
2023-03-14T21:30:07.039Z,48.51
2023-03-14T21:32:36.064Z,50.24
2023-03-14T21:35:03.634Z,47.25
2023-03-14T21:37:31.328Z,47.70
2023-03-14T21:39:58.895Z,49.67
2023-03-14T21:42:27.287Z,48.00
2023-03-14T21:44:54.861Z,46.79
2023-03-14T21:47:23.519Z,48.10
2023-03-14T21:49:53.840Z,48.79
2023-03-14T21:52:22.017Z,49.34
2023-03-14T21:54:49.627Z,49.87
2023-03-14T21:57:17.234Z,49.01
2023-03-14T21:59:45.520Z,46.42
2023-03-14T22:02:14.116Z,46.75
2023-03-14T22:04:41.942Z,49.25
2023-03-14T22:07:11.541Z,46.79
2023-03-14T22:09:39.816Z,48.80
2023-03-14T22:12:07.581Z,50.77
2023-03-14T22:14:35.231Z,48.40
2023-03-14T22:17:04.037Z,48.13
2023-03-14T22:19:32.256Z,50.76
2023-03-14T22:21:59.904Z,50.66
2023-03-14T22:24:28.897Z,51.02
2023-03-14T22:26:56.503Z,51.52
2023-03-14T22:29:24.322Z,48.58
2023-03-14T22:31:51.967Z,46.63
2023-03-14T22:34:19.693Z,48.12
2023-03-14T22:36:47.260Z,49.91
2023-03-14T22:39:14.891Z,50.69
2023-03-14T22:41:43.832Z,51.09
2023-03-14T22:44:11.426Z,47.77
2023-03-14T22:46:38.997Z,47.92
2023-03-14T22:49:06.603Z,48.87
2023-03-14T22:51:34.822Z,47.95
2023-03-14T22:54:02.469Z,47.35
2023-03-14T22:56:30.058Z,48.10
2023-03-14T22:58:59.076Z,48.37
2023-03-14T23:01:27.145Z,46.21
2023-03-14T23:03:54.820Z,47.33
2023-03-14T23:06:22.803Z,47.85
2023-03-14T23:08:50.978Z,47.13
2023-03-14T23:11:18.611Z,46.61
2023-03-14T23:13:48.357Z,45.49
2023-03-14T23:16:18.708Z,44.73
2023-03-14T23:18:46.466Z,44.37
2023-03-14T23:21:15.002Z,44.69
2023-03-14T23:23:45.890Z,45.89
2023-03-14T23:26:14.489Z,44.46
2023-03-14T23:28:42.523Z,46.27
2023-03-14T23:31:10.399Z,43.06
2023-03-14T23:33:39.428Z,44.21
2023-03-14T23:36:07.619Z,44.50
2023-03-14T23:38:35.784Z,46.02
2023-03-14T23:41:03.518Z,45.86
2023-03-14T23:43:32.600Z,43.64
2023-03-14T23:46:00.398Z,42.99
2023-03-14T23:48:28.497Z,43.26
2023-03-14T23:50:57.604Z,44.20
2023-03-14T23:53:25.334Z,41.55
2023-03-14T23:55:52.960Z,42.27
2023-03-14T23:58:21.472Z,43.37
